createdAt,value
2019-02-23T08:26:04.500Z,28.75
2019-02-23T08:28:32.815Z,27.70
2019-02-23T08:31:01.166Z,26.71
2019-02-23T08:33:29.580Z,26.51
2019-02-23T08:35:58.005Z,25.44
2019-02-23T08:38:27.261Z,25.86
2019-02-23T08:40:56.255Z,25.22
2019-02-23T08:43:24.591Z,25.59
2019-02-23T08:45:52.961Z,24.28
2019-02-23T08:48:21.335Z,23.71
2019-02-23T08:50:49.962Z,24.22
2019-02-23T08:53:18.332Z,24.19
2019-02-23T08:55:47.164Z,24.10
2019-02-23T08:58:15.584Z,25.61
2019-02-23T09:00:43.921Z,24.29
2019-02-23T09:03:12.259Z,23.77
2019-02-23T09:05:40.647Z,25.05
2019-02-23T09:08:09.029Z,24.99
2019-02-23T09:10:37.379Z,25.26
2019-02-23T09:13:05.909Z,26.23
2019-02-23T09:15:34.254Z,28.02
2019-02-23T09:18:02.551Z,28.65
2019-02-23T09:20:30.903Z,30.63
2019-02-23T09:23:00.387Z,32.31
2019-02-23T09:25:29.008Z,33.28
2019-02-23T09:27:58.674Z,34.49
2019-02-23T09:30:27.016Z,34.14
2019-02-23T09:32:55.347Z,33.77
2019-02-23T09:35:23.655Z,32.71
2019-02-23T09:37:52.209Z,32.50
2019-02-23T09:40:21.152Z,31.64
2019-02-23T09:42:49.497Z,31.00
2019-02-23T09:45:17.935Z,30.30
2019-02-23T09:47:46.257Z,29.02
2019-02-23T09:50:14.645Z,27.68
2019-02-23T09:52:43.054Z,26.46
2019-02-23T09:55:11.597Z,25.94
2019-02-23T09:57:40.014Z,24.75
2019-02-23T10:00:11.636Z,23.93
2019-02-23T10:02:40.055Z,22.92
2019-02-23T10:05:09.292Z,23.96
2019-02-23T10:07:37.699Z,24.74
2019-02-23T10:10:09.561Z,24.10
2019-02-23T10:12:37.928Z,23.79
2019-02-23T10:15:08.628Z,23.57
2019-02-23T10:17:37.149Z,22.51
2019-02-23T10:20:08.667Z,22.18
2019-02-23T10:22:39.490Z,22.81
2019-02-23T10:25:07.791Z,22.50
2019-02-23T10:27:36.097Z,22.88
2019-02-23T10:30:07.232Z,22.57
2019-02-23T10:32:35.533Z,22.02
2019-02-23T10:35:04.813Z,20.83
2019-02-23T10:37:33.191Z,21.21
2019-02-23T10:40:01.607Z,19.77
2019-02-23T10:42:29.988Z,20.17
2019-02-23T10:44:58.394Z,19.72
2019-02-23T10:47:26.759Z,19.48
2019-02-23T10:49:55.177Z,20.27
2019-02-23T10:52:23.464Z,20.27
2019-02-23T10:54:51.865Z,20.65
2019-02-23T10:57:21.843Z,19.73
2019-02-23T10:59:50.218Z,19.75
2019-02-23T11:02:18.776Z,18.73
2019-02-23T11:04:47.125Z,19.70
2019-02-23T11:07:15.633Z,18.77
2019-02-23T11:09:43.959Z,18.22
2019-02-23T11:12:12.496Z,18.50
2019-02-23T11:14:41.052Z,18.09
2019-02-23T11:17:09.506Z,17.62
2019-02-23T11:19:37.805Z,17.41
2019-02-23T11:22:06.226Z,17.57
2019-02-23T11:24:34.606Z,17.44
2019-02-23T11:27:02.992Z,17.42
2019-02-23T11:29:31.285Z,17.03
2019-02-23T11:31:59.606Z,17.83
2019-02-23T11:34:27.979Z,17.18
2019-02-23T11:36:56.289Z,16.27
2019-02-23T11:39:24.595Z,16.26
2019-02-23T11:41:52.978Z,15.79
2019-02-23T11:44:21.281Z,15.70
2019-02-23T11:46:59.870Z,15.89
2019-02-23T11:49:20.017Z,15.17
2019-02-23T11:51:48.350Z,14.61
2019-02-23T11:54:16.706Z,15.16
2019-02-23T11:56:45.106Z,15.98
2019-02-23T11:59:13.409Z,15.83
2019-02-23T12:01:41.904Z,15.63
2019-02-23T12:04:10.369Z,16.14
2019-02-23T12:06:38.854Z,16.77
2019-02-23T12:09:08.398Z,14.89
2019-02-23T12:11:36.815Z,14.15
2019-02-23T12:14:05.136Z,15.12
2019-02-23T12:16:33.513Z,14.46
2019-02-23T12:19:02.212Z,14.08
2019-02-23T12:21:30.663Z,14.10
2019-02-23T12:24:05.971Z,15.07
2019-02-23T12:26:29.560Z,13.94
2019-02-23T12:28:58.062Z,14.12
2019-02-23T12:31:26.522Z,13.75
2019-02-23T12:33:54.826Z,13.39
2019-02-23T12:36:23.149Z,14.22
2019-02-23T12:38:51.536Z,14.57
2019-02-23T12:41:20.063Z,15.51
2019-02-23T12:43:48.650Z,14.47
2019-02-23T12:46:16.946Z,13.72
2019-02-23T12:48:45.289Z,14.81
2019-02-23T12:51:13.591Z,13.88
2019-02-23T12:53:41.972Z,14.19
2019-02-23T12:56:10.523Z,14.02
2019-02-23T12:58:38.923Z,14.05
2019-02-23T13:01:07.222Z,14.77
2019-02-23T13:03:35.501Z,14.82
2019-02-23T13:06:03.964Z,14.90
2019-02-23T13:08:35.585Z,14.48
2019-02-23T13:11:03.943Z,15.15
2019-02-23T13:13:38.406Z,15.14
2019-02-23T13:16:18.580Z,16.24
2019-02-23T13:19:09.738Z,16.43
2019-02-23T13:21:53.188Z,16.61
2019-02-23T13:24:33.536Z,16.99
2019-02-23T13:27:07.795Z,17.45
2019-02-23T13:29:48.411Z,18.06
2019-02-23T13:32:45.906Z,17.97
2019-02-23T13:35:35.919Z,17.46
2019-02-23T13:38:25.663Z,17.82
2019-02-23T13:41:06.210Z,17.85
2019-02-23T13:43:40.345Z,17.89
2019-02-23T13:46:33.292Z,17.55
2019-02-23T13:49:30.623Z,16.97
2019-02-23T13:52:07.935Z,16.69
2019-02-23T13:54:42.159Z,16.14
2019-02-23T13:57:25.897Z,16.27
2019-02-23T14:00:15.355Z,17.00
2019-02-23T14:03:03.514Z,16.51
2019-02-23T14:05:37.914Z,17.53
2019-02-23T14:08:27.374Z,16.90
2019-02-23T14:11:08.264Z,17.06
2019-02-23T14:13:42.416Z,16.84
2019-02-23T14:16:35.234Z,16.99
2019-02-23T14:19:24.796Z,17.85
2019-02-23T14:22:05.286Z,18.25
2019-02-23T14:24:51.787Z,18.19
2019-02-23T14:27:53.543Z,18.03
2019-02-23T14:30:40.526Z,18.87
2019-02-23T14:33:32.955Z,19.32
2019-02-23T14:36:04.422Z,19.27
2019-02-23T14:38:57.211Z,18.54
2019-02-23T14:41:45.367Z,18.89
2019-02-23T14:44:19.847Z,19.36
2019-02-23T14:46:57.019Z,18.44
2019-02-23T14:49:40.344Z,19.20
2019-02-23T14:52:37.709Z,19.29
2019-02-23T14:55:12.082Z,18.59
2019-02-23T14:57:49.393Z,19.45
2019-02-23T15:00:46.808Z,18.44
2019-02-23T15:03:52.128Z,18.36
2019-02-23T15:06:46.049Z,18.71
2019-02-23T15:09:20.556Z,18.40
2019-02-23T15:11:58.067Z,18.87
2019-02-23T15:14:32.736Z,18.54
2019-02-23T15:17:10.324Z,19.40
2019-02-23T15:20:14.791Z,18.85
2019-02-23T15:22:55.141Z,18.74
2019-02-23T15:25:38.966Z,18.71
2019-02-23T15:28:37.780Z,19.26
2019-02-23T15:31:04.570Z,19.05
2019-02-23T15:33:45.087Z,19.31
2019-02-23T15:36:25.427Z,19.46
2019-02-23T15:39:15.393Z,19.65
2019-02-23T15:41:50.095Z,19.26
2019-02-23T15:44:36.782Z,19.30
2019-02-23T15:47:14.077Z,19.84
2019-02-23T15:49:42.924Z,19.61
2019-02-23T15:52:11.474Z,19.62
2019-02-23T15:54:39.847Z,19.62
2019-02-23T15:57:08.194Z,19.67
2019-02-23T15:59:36.811Z,20.89
2019-02-23T16:02:05.218Z,21.00
2019-02-23T16:04:33.668Z,21.41
2019-02-23T16:07:02.026Z,21.41
2019-02-23T16:09:30.353Z,20.69
2019-02-23T16:11:58.761Z,21.30
2019-02-23T16:14:27.422Z,21.50
2019-02-23T16:16:55.766Z,21.29
2019-02-23T16:19:24.109Z,21.29
2019-02-23T16:21:53.085Z,22.33
2019-02-23T16:24:23.030Z,22.32
2019-02-23T16:26:51.444Z,22.32
2019-02-23T16:29:19.892Z,22.86
2019-02-23T16:31:48.574Z,23.02
2019-02-23T16:34:16.873Z,23.02
2019-02-23T16:36:45.211Z,23.53
2019-02-23T16:39:14.155Z,24.10
2019-02-23T16:41:42.476Z,23.92
2019-02-23T16:44:10.776Z,24.56
2019-02-23T16:46:39.115Z,24.56
2019-02-23T16:49:07.533Z,23.83
2019-02-23T16:51:36.083Z,22.24
2019-02-23T16:54:04.427Z,22.24
2019-02-23T16:56:33.958Z,22.45
2019-02-23T16:59:02.521Z,22.93
2019-02-23T17:01:31.990Z,22.92
2019-02-23T17:04:00.641Z,22.96
2019-02-23T17:06:29.011Z,23.08
2019-02-23T17:08:57.347Z,23.28
2019-02-23T17:11:25.652Z,24.07
2019-02-23T17:13:54.276Z,24.07
2019-02-23T17:16:22.699Z,24.04
2019-02-23T17:18:51.147Z,24.34
2019-02-23T17:21:19.586Z,24.57
2019-02-23T17:23:47.917Z,24.57
2019-02-23T17:26:16.230Z,24.72
2019-02-23T17:28:44.577Z,24.29
2019-02-23T17:31:13.014Z,24.47
2019-02-23T17:33:41.477Z,25.09
2019-02-23T17:36:10.238Z,25.18
2019-02-23T17:38:38.871Z,25.78
2019-02-23T17:41:07.599Z,25.94
2019-02-23T17:43:36.158Z,26.36
2019-02-23T17:46:04.741Z,26.81
2019-02-23T17:51:01.473Z,26.77
2019-02-23T17:53:29.995Z,26.35
2019-02-23T17:55:58.567Z,26.20
2019-02-23T17:58:26.978Z,25.52
2019-02-23T18:00:55.388Z,25.65
2019-02-23T18:03:25.304Z,25.66
2019-02-23T18:05:53.900Z,25.61
2019-02-23T18:08:22.281Z,25.53
2019-02-23T18:10:50.590Z,25.49
2019-02-23T18:13:18.982Z,25.52
2019-02-23T18:15:47.307Z,25.89
2019-02-23T18:18:15.691Z,25.58
2019-02-23T18:20:44.607Z,25.73
2019-02-23T18:23:13.075Z,25.87
2019-02-23T18:25:41.629Z,26.19
2019-02-23T18:28:10.011Z,26.12
2019-02-23T18:30:38.720Z,26.21
2019-02-23T18:33:07.114Z,26.92
2019-02-23T18:35:35.799Z,27.29
2019-02-23T18:38:04.336Z,27.21
2019-02-23T18:40:32.770Z,27.33
2019-02-23T18:43:01.359Z,27.44
2019-02-23T18:45:29.790Z,27.49
2019-02-23T18:47:58.674Z,27.64
2019-02-23T18:50:26.982Z,27.68
2019-02-23T18:52:55.651Z,27.78
2019-02-23T18:55:24.063Z,28.39
2019-02-23T18:57:53.580Z,29.42
2019-02-23T19:00:24.380Z,28.96
2019-02-23T19:02:52.207Z,28.95
2019-02-23T19:05:20.758Z,28.39
2019-02-23T19:07:49.340Z,28.58
2019-02-23T19:10:18.999Z,28.34
2019-02-23T19:12:47.606Z,28.73
2019-02-23T19:15:16.053Z,28.83
2019-02-23T19:17:46.313Z,28.60
2019-02-23T19:20:15.372Z,28.85
2019-02-23T19:22:43.893Z,28.56
2019-02-23T19:25:12.395Z,28.43
2019-02-23T19:27:42.478Z,28.63
2019-02-23T19:30:12.723Z,29.21
2019-02-23T19:32:42.326Z,29.48
2019-02-23T19:35:10.702Z,29.38
2019-02-23T19:37:39.013Z,29.61
2019-02-23T19:40:09.297Z,28.58
2019-02-23T19:42:37.813Z,28.91
2019-02-23T19:45:11.746Z,29.11
2019-02-23T19:47:42.067Z,28.24
2019-02-23T19:50:16.560Z,29.11
2019-02-23T19:52:44.919Z,28.50
2019-02-23T19:55:15.894Z,29.06
2019-02-23T19:57:44.306Z,29.25
2019-02-23T20:00:13.370Z,29.14
2019-02-23T20:02:41.930Z,29.88
2019-02-23T20:05:11.266Z,29.50
2019-02-23T20:07:39.739Z,30.10
2019-02-23T20:10:10.088Z,30.51
2019-02-23T20:12:38.521Z,30.37
2019-02-23T20:15:09.285Z,30.34
2019-02-23T20:17:37.609Z,30.08
2019-02-23T20:20:07.276Z,30.21
2019-02-23T20:22:35.685Z,30.07
2019-02-23T20:25:05.171Z,30.16
2019-02-23T20:27:33.667Z,29.60
2019-02-23T20:30:02.312Z,29.74
2019-02-23T20:32:31.325Z,29.61
2019-02-23T20:34:59.900Z,29.72
2019-02-23T20:37:28.458Z,29.88
2019-02-23T20:39:56.965Z,29.71
2019-02-23T20:42:25.590Z,29.66
2019-02-23T20:44:55.588Z,29.60
2019-02-23T20:47:24.006Z,29.75
2019-02-23T20:49:54.230Z,29.91
2019-02-23T20:52:22.626Z,29.91
2019-02-23T20:54:50.932Z,29.85
2019-02-23T20:57:19.496Z,30.03
2019-02-23T20:59:48.168Z,29.79
2019-02-23T21:02:17.027Z,29.55
2019-02-23T21:04:45.583Z,29.29
2019-02-23T21:07:13.937Z,29.69
2019-02-23T21:09:42.248Z,30.26
2019-02-23T21:12:10.791Z,30.75
2019-02-23T21:14:39.115Z,31.01
2019-02-23T21:17:07.547Z,31.33
2019-02-23T21:19:36.048Z,31.77
2019-02-23T21:22:04.563Z,32.32
2019-02-23T21:24:32.888Z,31.44
2019-02-23T21:27:01.321Z,31.38
2019-02-23T21:29:29.673Z,30.97
2019-02-23T21:31:59.611Z,31.29
2019-02-23T21:34:27.995Z,31.76
2019-02-23T21:36:58.118Z,32.71
2019-02-23T21:39:26.474Z,31.85
2019-02-23T21:41:54.817Z,31.19
2019-02-23T21:44:23.275Z,30.15
2019-02-23T21:46:51.576Z,30.37
2019-02-23T21:49:19.856Z,30.08
2019-02-23T21:51:48.244Z,30.16
2019-02-23T21:54:16.807Z,30.50
2019-02-23T21:56:45.256Z,30.47
2019-02-23T21:59:13.618Z,30.09
2019-02-23T22:01:42.415Z,30.36
2019-02-23T22:04:10.805Z,30.45
2019-02-23T22:06:39.084Z,30.50
2019-02-23T22:09:07.861Z,30.01
2019-02-23T22:11:36.180Z,30.08
2019-02-23T22:14:04.497Z,30.30
2019-02-23T22:16:32.859Z,30.55
2019-02-23T22:19:01.258Z,30.41
2019-02-23T22:21:29.725Z,29.72
2019-02-23T22:23:58.080Z,29.16
2019-02-23T22:26:26.341Z,28.77
2019-02-23T22:28:54.729Z,28.08
2019-02-23T22:31:23.033Z,28.27
2019-02-23T22:33:51.336Z,27.98
2019-02-23T22:36:19.628Z,27.60
2019-02-23T22:38:48.101Z,27.33
2019-02-23T22:41:16.579Z,27.63
2019-02-23T22:43:45.000Z,27.72
2019-02-23T22:46:13.536Z,28.14
2019-02-23T22:48:42.028Z,28.90
2019-02-23T22:51:10.390Z,28.90
2019-02-23T22:53:38.710Z,28.75
2019-02-23T22:56:07.000Z,28.62
2019-02-23T22:58:35.384Z,28.51
2019-02-23T23:01:04.316Z,28.38
2019-02-23T23:03:32.708Z,28.87
2019-02-23T23:06:01.006Z,29.04
2019-02-23T23:08:29.343Z,29.02
2019-02-23T23:10:57.640Z,29.26
2019-02-23T23:13:26.035Z,28.66
2019-02-23T23:15:54.481Z,28.31
2019-02-23T23:18:22.958Z,28.20
2019-02-23T23:20:51.292Z,28.44
2019-02-23T23:23:19.607Z,28.65
2019-02-23T23:25:48.019Z,29.46
2019-02-23T23:28:16.391Z,29.53
2019-02-23T23:30:45.736Z,29.92
2019-02-23T23:33:14.087Z,30.20
2019-02-23T23:35:42.413Z,30.09
2019-02-23T23:38:10.700Z,30.08
2019-02-23T23:40:39.030Z,30.33
2019-02-23T23:43:07.333Z,30.83
2019-02-23T23:45:35.648Z,31.58
2019-02-23T23:48:04.202Z,31.11
2019-02-23T23:50:32.731Z,30.50
2019-02-23T23:53:01.199Z,30.31
2019-02-23T23:55:29.602Z,30.50
2019-02-23T23:57:58.702Z,30.32
